Accueil
METAR-TAF:

METAR-TAF

Aéroports :

Harbin, Chine

Aéroport international de Harbin Taiping

latitude: 45-45N, longitude: 126-46E, altitude: 143 m

Observation

Le bulletin a été fait il y a 11 minutes, à 20:00 UTC
Vent 4 kt de sud/sud-ouest
Température -23°C
Humidité 76%
Pression 1031 hPa
Visibilité: 6000 m

METAR: ZYHB 232000Z 20002MPS 6000 NSC M23/M26 Q1031 NOSIG

Heure: 04:11 (20:11 UTC)

Prévision

Le bulletin a été fait il y a 5 heures et 10 minutes, à 15:01 UTC
Prévision valable du 23 à 18 UTC au 24 à 18 UTC
Vent 6 kt de ouest
Visibilité: 5000 m
Nuages épars à une hauteur de 3000 ft
brume sèche
Temporairement
du 23 à 18 UTC au 23 à 24 UTC
Visibilité: 1400 m
brume sèche

TAF: ZYHB 231501Z 2318/2418 27003MPS 5000 HZ SCT030 TXM08/06Z TNM21/22Z TEMPO 2318/2324 1400 HZ

Observations et prévisions météorologiques de plus de 4000 aéroports (messages METAR et TAF).

Les stations disponibles sont représentées par des disques jaunes et rouges sur la carte.

Passer la souris dessus pour voir le nom de la station.

Cliquer dessus pour voir les observations et prévisions météorologiques.

Pour changer de carte: cliquez sur les boutons verts avec une croix noire pour zoomer, sur le bouton vert avec un tiret pour effectuer un zoom arrière, ou sur les flèches vertes pour les cartes adjacentes.


METAR-TAF: